Time;durP1;ratioP1;P1;durP2;ratioP2;P2;SDS_P1;SDS_P2;PMS_P1;PMS_P2;Temp;Humidity;BMP_temperature;BMP_pressure;BME280_temperature;BME280_humidity;BME280_pressure;Samples;Min_cycle;Max_cycle;Signal;HPM_P1;HPM_P2
2022/06/10 00:00:42;;;;;;;;;;;;;;;17.71;60.47;100051.50;5063688;28;1114;-56
2022/06/10 00:03:10;;;;;;;;;;;;;;;17.84;60.09;100041.66;5071741;28;996;-56
2022/06/10 00:05:39;;;;;;;;;;;;;;;18.07;59.51;100043.50;5069082;28;1276;-56
2022/06/10 00:08:05;;;;;;;;;;;;;;;18.23;59.33;100046.00;5072532;28;1016;-56
2022/06/10 00:10:31;;;;;;;;;;;;;;;17.78;60.24;100046.44;5071732;28;1174;-57
2022/06/10 00:12:56;;;;;;;;;;;;;;;17.38;61.81;100048.72;5069017;28;1024;-56
2022/06/10 00:15:21;;;;;;;;;;;;;;;17.79;60.43;100046.16;5072440;28;1958;-57
2022/06/10 00:17:47;;;;;;;;;;;;;;;17.90;59.96;100054.25;5064914;28;1087;-57
2022/06/10 00:20:13;;;;;;;;;;;;;;;17.62;60.85;100037.63;5062542;28;1071;-57
2022/06/10 00:22:38;;;;;;;;;;;;;;;17.65;60.76;100044.47;5073749;28;1094;-57
2022/06/10 00:25:04;;;;;;;;;;;;;;;17.76;60.27;100044.00;5069194;28;1060;-57
2022/06/10 00:27:30;;;;;;;;;;;;;;;18.22;58.73;100044.38;5057998;28;917;-57
2022/06/10 00:29:55;;;;;;;;;;;;;;;17.91;59.78;100050.41;5063046;28;1071;-57
2022/06/10 00:32:20;;;;;;;;;;;;;;;17.52;61.04;100044.09;5068563;28;1031;-57
2022/06/10 00:34:46;;;;;;;;;;;;;;;17.41;61.16;100040.66;5068842;28;1976;-57
2022/06/10 00:37:11;;;;;;;;;;;;;;;17.94;59.88;100034.09;5068712;28;980;-57
2022/06/10 00:39:37;;;;;;;;;;;;;;;17.96;59.83;100028.31;5063639;28;1059;-57
2022/06/10 00:42:03;;;;;;;;;;;;;;;18.00;59.44;100029.34;5063881;28;1111;-57
2022/06/10 00:44:37;;;;;;;;;;;;;;;17.95;60.03;100035.75;5071883;28;1180;-57
2022/06/10 00:47:14;;;;;;;;;;;;;;;18.23;58.87;100040.50;5074309;28;1138;-57
2022/06/10 00:49:40;;;;;;;;;;;;;;;18.30;58.71;100041.75;5053758;28;1017;-56
2022/06/10 00:52:08;;;;;;;;;;;;;;;17.90;60.03;100043.25;5044327;28;1468;-57
2022/06/10 00:54:37;;;;;;;;;;;;;;;17.76;60.51;100045.94;5055244;28;1978;-56
2022/06/10 00:57:03;;;;;;;;;;;;;;;17.85;60.33;100043.31;5068161;28;1012;-57
2022/06/10 00:59:31;;;;;;;;;;;;;;;18.08;59.70;100038.84;5074335;28;1075;-56
2022/06/10 01:01:57;;;;;;;;;;;;;;;18.27;59.22;100034.09;5052801;28;1036;-56
2022/06/10 01:04:23;;;;;;;;;;;;;;;18.07;59.80;100043.50;5070548;28;995;-57
2022/06/10 01:06:49;;;;;;;;;;;;;;;17.64;60.93;100046.38;5070700;28;1071;-56
2022/06/10 01:09:14;;;;;;;;;;;;;;;17.49;61.51;100054.84;5076546;28;1206;-57
2022/06/10 01:11:45;;;;;;;;;;;;;;;17.76;60.68;100040.44;5060086;28;1075;-56
2022/06/10 01:14:30;;;;;;;;;;;;;;;18.11;59.39;100030.78;5061432;28;1913;-56
2022/06/10 01:17:21;;;;;;;;;;;;;;;17.86;60.24;100036.69;5062686;28;957;-56
2022/06/10 01:19:47;;;;;;;;;;;;;;;17.71;60.69;100038.59;5070934;28;1267;-57
2022/06/10 01:22:30;;;;;;;;;;;;;;;17.74;60.57;100029.75;5068907;28;1016;-56
2022/06/10 01:25:02;;;;;;;;;;;;;;;18.13;59.08;100031.31;5060193;28;994;-56
2022/06/10 01:30:30;;;;;;;;;;;;;;;17.79;60.71;100048.91;5072637;28;984;-56
2022/06/10 01:33:14;;;;;;;;;;;;;;;17.63;61.07;100042.00;5071766;28;1063;-57
2022/06/10 01:35:42;;;;;;;;;;;;;;;18.05;59.90;100042.22;5065604;28;1918;-56
2022/06/10 01:38:45;;;;;;;;;;;;;;;18.24;59.15;100039.38;5075834;28;1035;-56
2022/06/10 01:41:23;;;;;;;;;;;;;;;17.89;60.37;100053.44;4991799;28;1236;-56
2022/06/10 01:43:59;;;;;;;;;;;;;;;17.63;61.07;100044.75;4983740;28;884;-56
2022/06/10 01:46:25;;;;;;;;;;;;;;;17.56;61.48;100038.84;5031931;28;1184;-56
2022/06/10 01:49:10;;;;;;;;;;;;;;;17.96;60.08;100036.56;5065304;28;1023;-54
2022/06/10 01:51:53;;;;;;;;;;;;;;;18.03;59.67;100031.47;5050006;28;1047;-55
2022/06/10 01:54:38;;;;;;;;;;;;;;;17.72;60.77;100031.16;5071307;28;1914;-57
2022/06/10 01:57:05;;;;;;;;;;;;;;;17.39;61.62;100037.41;5071140;28;909;-55
2022/06/10 01:59:32;;;;;;;;;;;;;;;17.55;61.30;100031.69;5053662;28;1025;-56
2022/06/10 02:02:00;;;;;;;;;;;;;;;17.90;60.21;100032.22;5055863;28;1139;-56
2022/06/10 02:04:27;;;;;;;;;;;;;;;17.73;60.84;100027.28;5058764;28;1071;-56
2022/06/10 02:07:13;;;;;;;;;;;;;;;17.70;60.86;100045.19;5053063;28;1060;-56
2022/06/10 02:09:46;;;;;;;;;;;;;;;17.78;60.38;100036.28;5072767;28;1258;-56
2022/06/10 02:12:17;;;;;;;;;;;;;;;18.04;59.49;100027.63;5069423;28;1039;-56
2022/06/10 02:14:45;;;;;;;;;;;;;;;17.94;59.85;100023.09;5069340;28;1902;-56
2022/06/10 02:17:10;;;;;;;;;;;;;;;17.62;60.75;100026.63;5055116;28;1055;-56
2022/06/10 02:19:44;;;;;;;;;;;;;;;17.64;60.25;100034.56;5056065;28;1242;-56
2022/06/10 02:22:37;;;;;;;;;;;;;;;18.08;59.07;100038.84;5046737;28;1044;-56
2022/06/10 02:25:26;;;;;;;;;;;;;;;17.89;59.88;100038.84;5067483;28;1212;-56
2022/06/10 02:27:55;;;;;;;;;;;;;;;17.77;60.16;100044.81;5059413;28;1098;-56
2022/06/10 02:30:23;;;;;;;;;;;;;;;17.87;59.81;100052.91;5047927;28;969;-56
2022/06/10 02:32:49;;;;;;;;;;;;;;;18.09;59.49;100052.28;5056719;28;1106;-57
2022/06/10 02:35:15;;;;;;;;;;;;;;;18.26;58.83;100056.41;5043089;28;1902;-56
2022/06/10 02:37:43;;;;;;;;;;;;;;;17.87;59.94;100054.84;5057473;28;1004;-56
2022/06/10 02:40:09;;;;;;;;;;;;;;;17.53;61.45;100055.91;5075425;28;1198;-56
2022/06/10 02:42:42;;;;;;;;;;;;;;;17.61;61.11;100058.81;5076875;28;1015;-56
2022/06/10 02:45:22;;;;;;;;;;;;;;;18.08;59.42;100058.09;5063071;28;1050;-56
2022/06/10 02:47:48;;;;;;;;;;;;;;;18.00;59.67;100067.03;5049584;28;870;-56
2022/06/10 02:50:13;;;;;;;;;;;;;;;17.61;60.92;100069.81;5069356;28;1095;-57
2022/06/10 02:52:39;;;;;;;;;;;;;;;17.60;61.10;100065.41;5075267;28;1270;-56
2022/06/10 02:55:05;;;;;;;;;;;;;;;18.21;59.40;100075.75;5046381;28;1977;-56
2022/06/10 03:03:03;;;;;;;;;;;;;;;17.29;61.58;100081.50;5068049;28;1071;-56
2022/06/10 03:05:48;;;;;;;;;;;;;;;17.61;60.70;100085.47;5067886;28;976;-56
2022/06/10 03:08:33;;;;;;;;;;;;;;;17.89;59.97;100078.19;5071073;28;1074;-56
2022/06/10 03:10:59;;;;;;;;;;;;;;;17.84;59.72;100077.41;5050669;28;1099;-56
2022/06/10 03:13:27;;;;;;;;;;;;;;;17.55;60.57;100078.41;5062514;28;1182;-56
2022/06/10 03:15:53;;;;;;;;;;;;;;;17.73;60.02;100083.09;5069461;28;1991;-56
2022/06/10 03:18:27;;;;;;;;;;;;;;;18.23;58.47;100065.25;5062876;28;1048;-57
2022/06/10 03:21:02;;;;;;;;;;;;;;;17.97;59.46;100092.41;5071104;28;989;-57
2022/06/10 03:23:34;;;;;;;;;;;;;;;17.57;60.71;100089.91;5059023;28;1055;-56
2022/06/10 03:26:23;;;;;;;;;;;;;;;17.61;60.73;100086.31;5053793;28;1508;-56
2022/06/10 03:28:50;;;;;;;;;;;;;;;18.26;58.51;100084.75;5030827;28;1087;-57
2022/06/10 03:31:16;;;;;;;;;;;;;;;17.92;59.51;100090.53;5044385;28;1015;-57
2022/06/10 03:34:02;;;;;;;;;;;;;;;17.61;60.68;100088.22;5044972;28;1029;-57
2022/06/10 03:36:27;;;;;;;;;;;;;;;17.66;60.67;100077.16;5074490;28;1909;-56
2022/06/10 03:38:53;;;;;;;;;;;;;;;18.21;58.96;100089.53;5040198;28;882;-57
2022/06/10 03:41:18;;;;;;;;;;;;;;;18.28;58.70;100078.94;5045114;28;985;-56
2022/06/10 03:43:44;;;;;;;;;;;;;;;17.97;59.65;100082.22;5066138;28;1359;-56
2022/06/10 03:46:09;;;;;;;;;;;;;;;17.81;60.17;100075.28;5063041;28;1052;-57
2022/06/10 03:48:36;;;;;;;;;;;;;;;18.00;59.79;100078.84;5049372;28;1181;-57
2022/06/10 03:51:01;;;;;;;;;;;;;;;18.38;58.80;100081.50;5071844;28;877;-56
2022/06/10 03:53:27;;;;;;;;;;;;;;;18.51;58.71;100076.31;5046907;28;1096;-57
2022/06/10 03:55:52;;;;;;;;;;;;;;;18.39;58.80;100074.88;5070434;28;1977;-59
2022/06/10 03:58:18;;;;;;;;;;;;;;;17.86;59.21;100078.75;5062701;28;1182;-56
2022/06/10 04:00:43;;;;;;;;;;;;;;;17.55;58.29;100087.47;5068641;28;917;-57
2022/06/10 04:03:09;;;;;;;;;;;;;;;17.42;55.93;100094.53;5069858;28;948;-57
2022/06/10 04:05:34;;;;;;;;;;;;;;;17.42;53.40;100089.03;5069312;28;1008;-56
2022/06/10 04:07:59;;;;;;;;;;;;;;;17.84;51.80;100093.91;5070689;28;1063;-55
2022/06/10 04:10:26;;;;;;;;;;;;;;;17.69;51.96;100103.25;5064868;28;965;-57
2022/06/10 04:12:51;;;;;;;;;;;;;;;17.28;51.19;100099.13;5065692;28;964;-56
2022/06/10 04:15:17;;;;;;;;;;;;;;;17.20;50.28;100091.53;5065355;28;1898;-57
2022/06/10 04:17:43;;;;;;;;;;;;;;;17.65;48.44;100096.69;5068132;28;1044;-57
2022/06/10 04:20:11;;;;;;;;;;;;;;;17.36;48.27;100095.72;5070865;28;1242;-57
2022/06/10 04:22:37;;;;;;;;;;;;;;;17.31;47.77;100098.53;5046737;28;1151;-56
2022/06/10 04:25:03;;;;;;;;;;;;;;;17.36;47.76;100098.47;5065975;28;1040;-56
2022/06/10 04:27:28;;;;;;;;;;;;;;;17.27;48.12;100094.75;5070420;28;1170;-54
2022/06/10 04:29:54;;;;;;;;;;;;;;;17.40;48.12;100096.78;5067096;28;913;-56
2022/06/10 04:32:19;;;;;;;;;;;;;;;17.78;47.58;100101.44;5068131;28;1401;-56
2022/06/10 04:34:44;;;;;;;;;;;;;;;17.33;48.75;100111.97;5074767;28;1981;-56
2022/06/10 04:37:10;;;;;;;;;;;;;;;17.13;49.40;100121.31;5067811;28;1071;-56
2022/06/10 04:39:36;;;;;;;;;;;;;;;17.49;49.23;100115.31;5055505;28;1128;-56
2022/06/10 04:42:01;;;;;;;;;;;;;;;17.58;51.00;100108.06;5058968;28;977;-56
2022/06/10 04:44:26;;;;;;;;;;;;;;;17.88;52.90;100116.97;5070848;28;1111;-56
2022/06/10 04:46:52;;;;;;;;;;;;;;;18.24;55.46;100111.75;5058832;28;993;-57
2022/06/10 04:49:17;;;;;;;;;;;;;;;18.34;58.59;100121.78;5068790;28;1075;-56
2022/06/10 04:51:43;;;;;;;;;;;;;;;18.04;60.75;100123.91;5072149;28;1048;-56
2022/06/10 04:54:10;;;;;;;;;;;;;;;17.87;62.53;100123.59;5063944;28;1557;-56
2022/06/10 04:56:37;;;;;;;;;;;;;;;17.88;63.28;100116.97;5068246;28;1966;-56
2022/06/10 04:59:02;;;;;;;;;;;;;;;18.12;63.34;100127.91;5057153;28;1067;-56
2022/06/10 05:01:28;;;;;;;;;;;;;;;18.63;62.17;100127.06;5062879;28;1079;-56
2022/06/10 05:03:53;;;;;;;;;;;;;;;18.97;61.80;100136.06;5073781;28;954;-57
2022/06/10 05:06:19;;;;;;;;;;;;;;;18.44;63.95;100123.53;5062420;28;977;-57
2022/06/10 05:08:44;;;;;;;;;;;;;;;18.05;64.22;100131.03;5064462;28;1004;-57
2022/06/10 05:11:09;;;;;;;;;;;;;;;17.61;63.21;100140.44;5068965;28;1226;-58
2022/06/10 05:13:36;;;;;;;;;;;;;;;16.86;63.01;100141.91;5061141;28;1162;-58
2022/06/10 05:16:03;;;;;;;;;;;;;;;17.18;64.45;100138.53;5062461;28;1910;-58
2022/06/10 05:18:29;;;;;;;;;;;;;;;17.92;61.19;100131.78;5063072;28;977;-58
2022/06/10 05:20:54;;;;;;;;;;;;;;;18.12;58.83;100139.72;5072361;28;917;-59
2022/06/10 05:23:20;;;;;;;;;;;;;;;18.02;58.07;100139.91;5064165;28;1095;-58
2022/06/10 05:25:46;;;;;;;;;;;;;;;17.82;57.49;100140.16;5066950;28;969;-58
2022/06/10 05:28:12;;;;;;;;;;;;;;;17.97;56.64;100148.22;5068950;28;1199;-59
2022/06/10 05:30:37;;;;;;;;;;;;;;;17.99;55.93;100148.72;5070672;28;1222;-58
2022/06/10 05:33:03;;;;;;;;;;;;;;;17.65;56.29;100147.00;5071798;28;1277;-58
2022/06/10 05:35:28;;;;;;;;;;;;;;;17.73;55.86;100149.09;5074091;28;1910;-58
2022/06/10 05:37:54;;;;;;;;;;;;;;;17.66;56.00;100143.13;5063777;28;1016;-58
2022/06/10 05:40:20;;;;;;;;;;;;;;;18.06;54.35;100145.59;5064667;28;996;-57
2022/06/10 05:42:45;;;;;;;;;;;;;;;17.81;55.10;100147.63;5072093;28;1007;-58
2022/06/10 05:45:11;;;;;;;;;;;;;;;17.29;56.25;100155.69;5066300;28;1146;-57
2022/06/10 05:47:37;;;;;;;;;;;;;;;17.49;55.59;100154.63;5071657;28;1043;-57
2022/06/10 05:50:06;;;;;;;;;;;;;;;17.67;54.94;100153.03;5071857;28;1241;-58
2022/06/10 05:52:32;;;;;;;;;;;;;;;17.69;54.72;100160.97;5075903;28;1079;-59
2022/06/10 05:55:00;;;;;;;;;;;;;;;17.74;54.33;100150.72;5074084;28;1894;-58
2022/06/10 05:57:26;;;;;;;;;;;;;;;17.84;54.37;100163.50;5071733;28;1130;-59
2022/06/10 05:59:52;;;;;;;;;;;;;;;18.01;53.70;100168.53;5066282;28;945;-58
2022/06/10 06:02:17;;;;;;;;;;;;;;;17.53;55.03;100158.44;5065457;28;1016;-59
2022/06/10 06:04:43;;;;;;;;;;;;;;;17.30;55.62;100154.59;5065079;28;1102;-59
2022/06/10 06:07:08;;;;;;;;;;;;;;;17.62;55.25;100169.59;5068401;28;996;-60
2022/06/10 06:09:34;;;;;;;;;;;;;;;18.04;55.61;100176.19;5073184;28;901;-60
2022/06/10 06:11:59;;;;;;;;;;;;;;;17.85;57.95;100172.56;5063129;28;1118;-59
2022/06/10 06:14:26;;;;;;;;;;;;;;;17.75;59.92;100176.28;5073849;28;1902;-60
2022/06/10 06:16:55;;;;;;;;;;;;;;;17.90;60.66;100178.00;5049572;28;1262;-59
2022/06/10 06:19:21;;;;;;;;;;;;;;;17.97;61.67;100181.22;5070713;28;1253;-60
2022/06/10 06:21:46;;;;;;;;;;;;;;;18.36;61.27;100177.34;5072049;28;1118;-59
2022/06/10 06:24:12;;;;;;;;;;;;;;;18.66;61.13;100182.63;5064620;28;1127;-60
2022/06/10 06:26:37;;;;;;;;;;;;;;;18.54;62.06;100174.84;5067108;28;1347;-58
2022/06/10 06:29:03;;;;;;;;;;;;;;;18.21;63.23;100183.09;5077331;28;1024;-58
2022/06/10 06:31:28;;;;;;;;;;;;;;;17.86;63.43;100190.72;5074443;28;1055;-59
2022/06/10 06:33:53;;;;;;;;;;;;;;;17.56;63.15;100181.78;5063847;28;949;-58
2022/06/10 06:36:22;;;;;;;;;;;;;;;17.55;61.53;100188.38;5067659;28;1949;-59
2022/06/10 06:38:48;;;;;;;;;;;;;;;17.75;59.49;100192.78;5053310;28;1139;-58
2022/06/10 06:41:13;;;;;;;;;;;;;;;18.15;57.31;100198.84;5061646;28;1024;-58
2022/06/10 06:43:39;;;;;;;;;;;;;;;18.21;55.86;100200.41;5073721;28;1217;-58
2022/06/10 06:46:04;;;;;;;;;;;;;;;18.03;55.59;100207.53;5068163;28;1194;-57
2022/06/10 06:48:30;;;;;;;;;;;;;;;17.80;55.80;100200.97;5053467;28;1282;-58
2022/06/10 06:50:55;;;;;;;;;;;;;;;17.45;56.23;100203.88;5069193;28;827;-57
2022/06/10 06:53:21;;;;;;;;;;;;;;;17.43;56.07;100197.88;5062979;28;1083;-58
2022/06/10 06:55:46;;;;;;;;;;;;;;;17.56;55.33;100204.56;5066566;28;1910;-58
2022/06/10 06:58:15;;;;;;;;;;;;;;;17.89;54.24;100201.13;5068740;28;1150;-58
2022/06/10 07:00:41;;;;;;;;;;;;;;;18.09;53.63;100211.03;5067357;28;1080;-59
2022/06/10 07:03:06;;;;;;;;;;;;;;;17.81;54.25;100215.53;5070161;28;882;-58
2022/06/10 07:05:32;;;;;;;;;;;;;;;17.45;54.97;100219.56;5074338;28;1495;-58
2022/06/10 07:07:58;;;;;;;;;;;;;;;17.39;54.84;100221.56;5066778;28;1143;-58
2022/06/10 07:10:23;;;;;;;;;;;;;;;17.55;54.29;100218.63;5069757;28;1047;-58
2022/06/10 07:12:49;;;;;;;;;;;;;;;17.95;53.33;100211.00;5072921;28;1116;-57
2022/06/10 07:15:14;;;;;;;;;;;;;;;17.85;53.44;100222.06;5060159;28;1984;-57
2022/06/10 07:17:43;;;;;;;;;;;;;;;17.63;54.24;100217.97;5067494;28;1194;-58
2022/06/10 07:20:09;;;;;;;;;;;;;;;17.50;54.36;100221.41;5069452;28;1031;-58
2022/06/10 07:22:34;;;;;;;;;;;;;;;17.63;54.10;100226.22;5070537;28;988;-59
2022/06/10 07:24:59;;;;;;;;;;;;;;;17.92;53.56;100222.56;5056121;28;1044;-58
2022/06/10 07:27:25;;;;;;;;;;;;;;;17.77;54.43;100221.63;5065023;28;1052;-58
2022/06/10 07:29:50;;;;;;;;;;;;;;;17.55;55.09;100218.63;5064135;28;1134;-57
2022/06/10 07:32:16;;;;;;;;;;;;;;;17.71;54.60;100222.81;5070426;28;1202;-58
2022/06/10 07:34:41;;;;;;;;;;;;;;;17.99;53.86;100220.25;5069760;28;1980;-58
2022/06/10 07:37:07;;;;;;;;;;;;;;;17.99;54.17;100227.69;5065903;28;1142;-58
2022/06/10 07:39:32;;;;;;;;;;;;;;;17.70;55.31;100231.38;5062419;28;1008;-58
2022/06/10 07:42:00;;;;;;;;;;;;;;;17.64;55.31;100233.34;5068678;28;1046;-57
2022/06/10 07:44:30;;;;;;;;;;;;;;;17.92;54.61;100241.81;5072289;28;1222;-59
2022/06/10 07:46:56;;;;;;;;;;;;;;;17.99;54.42;100242.25;5067671;28;989;-59
2022/06/10 07:49:21;;;;;;;;;;;;;;;17.70;55.19;100242.38;5047819;28;1000;-59
2022/06/10 07:51:47;;;;;;;;;;;;;;;17.53;55.68;100243.66;5072394;28;1079;-59
2022/06/10 07:54:12;;;;;;;;;;;;;;;17.84;54.75;100243.28;5066824;28;917;-59
2022/06/10 07:56:39;;;;;;;;;;;;;;;17.95;54.28;100242.06;5071633;28;1991;-59
2022/06/10 07:59:05;;;;;;;;;;;;;;;17.86;54.65;100254.78;5063986;28;1143;-59
2022/06/10 08:01:30;;;;;;;;;;;;;;;17.71;54.88;100246.72;5062208;28;1163;-59
2022/06/10 08:03:56;;;;;;;;;;;;;;;17.81;54.83;100248.53;5074012;28;968;-59
2022/06/10 08:06:22;;;;;;;;;;;;;;;18.00;54.20;100248.59;5061786;28;984;-59
2022/06/10 08:08:47;;;;;;;;;;;;;;;17.87;54.84;100248.19;5074170;28;945;-58
2022/06/10 08:11:13;;;;;;;;;;;;;;;17.99;54.66;100260.72;5068546;28;1025;-58
2022/06/10 08:13:38;;;;;;;;;;;;;;;18.04;54.41;100269.72;5065197;28;1402;-59
2022/06/10 08:16:04;;;;;;;;;;;;;;;18.05;54.51;100265.03;5066743;28;1913;-59
2022/06/10 08:18:31;;;;;;;;;;;;;;;18.29;53.89;100262.22;5062967;28;1008;-59
2022/06/10 08:23:41;;;;;;;;;;;;;;;18.36;53.86;100265.41;5067876;28;1039;-59
2022/06/10 08:26:07;;;;;;;;;;;;;;;18.36;53.99;100268.16;5067520;28;1015;-59
2022/06/10 08:28:33;;;;;;;;;;;;;;;18.45;53.86;100269.16;5066750;28;1052;-58
2022/06/10 08:30:58;;;;;;;;;;;;;;;18.68;53.16;100276.75;5061487;28;1017;-59
2022/06/10 08:33:23;;;;;;;;;;;;;;;18.40;54.13;100276.66;5063063;28;1013;-59
2022/06/10 08:35:49;;;;;;;;;;;;;;;18.07;54.97;100271.88;5047155;28;1910;-59
2022/06/10 08:38:15;;;;;;;;;;;;;;;17.86;55.43;100279.53;5067933;28;1031;-58
2022/06/10 08:40:55;;;;;;;;;;;;;;;18.12;54.80;100280.06;5072059;28;1221;-58
2022/06/10 08:43:39;;;;;;;;;;;;;;;18.32;54.19;100280.88;5067019;28;1163;-60
2022/06/10 08:46:16;;;;;;;;;;;;;;;18.42;53.90;100286.22;5066680;28;1142;-59
2022/06/10 08:48:52;;;;;;;;;;;;;;;18.20;54.67;100284.09;5050745;28;1019;-59
2022/06/10 08:51:26;;;;;;;;;;;;;;;17.82;55.57;100288.69;5049586;28;997;-59
2022/06/10 08:54:13;;;;;;;;;;;;;;;17.76;55.85;100294.22;5066747;28;1336;-59
2022/06/10 08:56:45;;;;;;;;;;;;;;;17.95;55.00;100288.00;5063925;28;1906;-60
2022/06/10 08:59:20;;;;;;;;;;;;;;;18.33;53.97;100292.72;5043910;28;1013;-60
2022/06/10 09:01:51;;;;;;;;;;;;;;;18.66;53.16;100285.31;5060927;28;1147;-59
2022/06/10 09:04:30;;;;;;;;;;;;;;;18.78;53.25;100284.88;5073648;28;1169;-60
2022/06/10 09:06:56;;;;;;;;;;;;;;;18.63;53.44;100291.44;5049740;28;1281;-59
2022/06/10 09:09:22;;;;;;;;;;;;;;;18.20;54.66;100288.75;5071289;28;1194;-60
2022/06/10 09:11:48;;;;;;;;;;;;;;;17.86;55.60;100297.97;5077032;28;1122;-59
2022/06/10 09:14:23;;;;;;;;;;;;;;;17.64;55.92;100291.06;5061382;28;1079;-59
2022/06/10 09:16:55;;;;;;;;;;;;;;;17.63;55.86;100297.69;5066875;28;1198;-58
2022/06/10 09:19:39;;;;;;;;;;;;;;;18.00;54.65;100304.44;5066178;28;1258;-59
2022/06/10 09:22:08;;;;;;;;;;;;;;;18.34;53.78;100295.19;5063282;28;1123;-59
2022/06/10 09:24:34;;;;;;;;;;;;;;;18.25;54.01;100303.28;5072427;28;1001;-59
2022/06/10 09:27:09;;;;;;;;;;;;;;;17.90;54.91;100299.03;5065831;28;1142;-59
2022/06/10 09:29:38;;;;;;;;;;;;;;;17.89;54.66;100297.38;5056861;28;1435;-59
2022/06/10 09:32:22;;;;;;;;;;;;;;;18.10;54.20;100295.22;5077856;28;953;-59
2022/06/10 09:34:52;;;;;;;;;;;;;;;18.11;53.83;100286.66;5069727;28;1905;-59
2022/06/10 09:37:36;;;;;;;;;;;;;;;18.33;53.51;100299.03;5072916;28;1122;-59
2022/06/10 09:40:36;;;;;;;;;;;;;;;18.30;53.57;100305.16;5075406;28;1004;-59
2022/06/10 09:43:20;;;;;;;;;;;;;;;17.92;54.51;100314.16;5076897;28;961;-59
2022/06/10 09:45:49;;;;;;;;;;;;;;;17.65;55.33;100306.47;5072158;28;993;-59
2022/06/10 09:48:32;;;;;;;;;;;;;;;17.53;55.59;100308.78;5062383;28;864;-59
2022/06/10 09:51:00;;;;;;;;;;;;;;;17.61;55.11;100320.00;5066362;28;1008;-60
2022/06/10 09:53:31;;;;;;;;;;;;;;;18.00;53.85;100326.44;5053198;28;997;-59
2022/06/10 09:55:57;;;;;;;;;;;;;;;18.26;52.81;100326.94;5049155;28;1906;-59
2022/06/10 09:58:22;;;;;;;;;;;;;;;18.04;53.63;100329.44;5070042;28;1238;-59
2022/06/10 10:00:52;;;;;;;;;;;;;;;17.61;54.76;100324.66;5065054;28;961;-59
2022/06/10 10:03:20;;;;;;;;;;;;;;;17.35;55.30;100330.44;5069842;28;1084;-59
2022/06/10 10:05:52;;;;;;;;;;;;;;;17.60;54.70;100323.03;5065347;28;1024;-59
2022/06/10 10:08:17;;;;;;;;;;;;;;;17.82;53.91;100318.94;5050771;28;1024;-59
2022/06/10 10:10:46;;;;;;;;;;;;;;;17.61;54.35;100319.16;5071606;28;976;-59
2022/06/10 10:13:34;;;;;;;;;;;;;;;17.28;55.30;100329.94;5052469;28;1213;-57
2022/06/10 10:16:18;;;;;;;;;;;;;;;17.40;54.60;100329.53;5052453;28;2072;-57
2022/06/10 10:18:43;;;;;;;;;;;;;;;17.84;53.41;100336.78;5068157;28;1009;-58
2022/06/10 10:21:09;;;;;;;;;;;;;;;17.83;53.32;100339.84;5068523;28;1012;-58
2022/06/10 10:23:36;;;;;;;;;;;;;;;17.62;54.06;100351.03;5073617;28;1079;-58
2022/06/10 10:26:06;;;;;;;;;;;;;;;17.81;54.52;100347.53;5067401;28;1001;-58
2022/06/10 10:28:33;;;;;;;;;;;;;;;18.28;54.52;100348.66;5067483;28;945;-56
2022/06/10 10:31:05;;;;;;;;;;;;;;;18.11;58.80;100341.69;5064096;28;1035;-59
2022/06/10 10:33:31;;;;;;;;;;;;;;;17.81;62.28;100331.03;5052663;28;989;-58
2022/06/10 10:35:56;;;;;;;;;;;;;;;17.56;64.57;100335.72;5054889;28;1996;-62
2022/06/10 10:38:33;;;;;;;;;;;;;;;17.61;64.80;100332.91;5050039;28;1068;-61
2022/06/10 10:40:58;;;;;;;;;;;;;;;17.73;65.78;100338.81;5070486;28;993;-61
2022/06/10 10:43:27;;;;;;;;;;;;;;;17.91;65.47;100350.22;5048008;28;1012;-61
2022/06/10 10:45:54;;;;;;;;;;;;;;;17.99;65.18;100338.53;5046125;28;951;-62
2022/06/10 10:48:21;;;;;;;;;;;;;;;18.00;65.03;100340.19;5071560;28;1151;-60
2022/06/10 10:51:13;;;;;;;;;;;;;;;18.37;63.63;100338.63;5069832;28;1173;-61
2022/06/10 10:53:43;;;;;;;;;;;;;;;18.85;62.32;100320.31;5059931;28;1633;-60
2022/06/10 10:56:09;;;;;;;;;;;;;;;18.75;61.92;100319.34;5057513;28;1910;-60
2022/06/10 10:58:36;;;;;;;;;;;;;;;18.32;62.13;100322.19;5039830;28;1206;-61
2022/06/10 11:01:05;;;;;;;;;;;;;;;17.96;61.47;100325.38;5046358;28;1168;-61
2022/06/10 11:03:32;;;;;;;;;;;;;;;17.54;60.67;100314.00;5061958;28;1143;-60
2022/06/10 11:05:59;;;;;;;;;;;;;;;17.68;58.68;100311.38;5071937;28;912;-59
2022/06/10 11:08:26;;;;;;;;;;;;;;;17.79;57.48;100321.16;5069227;28;941;-61
2022/06/10 11:11:09;;;;;;;;;;;;;;;17.93;56.26;100306.72;5075328;28;1029;-61
2022/06/10 11:13:47;;;;;;;;;;;;;;;18.04;55.38;100313.72;5069569;28;968;-60
2022/06/10 11:16:26;;;;;;;;;;;;;;;18.18;54.39;100305.56;5070270;28;1917;-62
2022/06/10 11:19:12;;;;;;;;;;;;;;;18.35;53.60;100307.81;5066740;28;918;-59
2022/06/10 11:21:51;;;;;;;;;;;;;;;17.99;54.50;100310.22;5065870;28;1691;-60
2022/06/10 11:24:18;;;;;;;;;;;;;;;17.50;55.69;100315.72;5066075;28;1071;-61
2022/06/10 11:26:47;;;;;;;;;;;;;;;17.74;55.06;100318.47;5071666;28;1206;-61
2022/06/10 11:29:13;;;;;;;;;;;;;;;17.99;53.75;100308.28;5061591;28;1123;-61
2022/06/10 11:31:40;;;;;;;;;;;;;;;18.17;53.32;100319.63;5067519;28;1084;-61
2022/06/10 11:34:09;;;;;;;;;;;;;;;17.89;53.90;100320.22;5072796;28;937;-61
2022/06/10 11:36:35;;;;;;;;;;;;;;;17.72;54.48;100323.44;5055404;28;1975;-63
2022/06/10 11:39:14;;;;;;;;;;;;;;;17.73;54.08;100316.81;5067724;28;993;-59
2022/06/10 11:41:39;;;;;;;;;;;;;;;18.05;53.37;100311.81;5049115;28;1395;-59
2022/06/10 11:44:07;;;;;;;;;;;;;;;18.30;52.72;100307.91;5045775;28;903;-61
2022/06/10 11:46:51;;;;;;;;;;;;;;;17.95;53.69;100315.50;5043711;28;1064;-61
2022/06/10 11:49:16;;;;;;;;;;;;;;;17.77;54.11;100326.13;5068689;28;1032;-62
2022/06/10 11:51:45;;;;;;;;;;;;;;;17.67;54.29;100326.25;5063646;28;1080;-57
2022/06/10 11:54:13;;;;;;;;;;;;;;;17.64;54.10;100315.00;5069032;28;953;-61
2022/06/10 11:59:45;;;;;;;;;;;;;;;18.08;52.71;100333.22;5072659;28;932;-59
2022/06/10 12:02:17;;;;;;;;;;;;;;;18.11;52.52;100325.19;5063317;28;1020;-60
2022/06/10 12:04:43;;;;;;;;;;;;;;;17.70;53.99;100325.66;5055516;28;992;-61
2022/06/10 12:07:11;;;;;;;;;;;;;;;17.69;53.90;100334.22;5050640;28;1012;-61
2022/06/10 12:09:44;;;;;;;;;;;;;;;17.88;52.97;100337.00;5045867;28;1021;-62
2022/06/10 12:12:16;;;;;;;;;;;;;;;18.26;51.91;100328.88;5051580;28;988;-61
2022/06/10 12:14:46;;;;;;;;;;;;;;;17.87;53.32;100327.94;5047309;28;1981;-61
2022/06/10 12:17:23;;;;;;;;;;;;;;;17.78;53.28;100324.19;5065153;28;952;-59
2022/06/10 12:19:54;;;;;;;;;;;;;;;17.70;53.51;100317.41;5053496;28;1154;-60
2022/06/10 12:22:19;;;;;;;;;;;;;;;17.88;52.60;100318.59;5066925;28;1216;-62
2022/06/10 12:24:46;;;;;;;;;;;;;;;18.18;52.04;100318.53;5063121;28;1083;-62
2022/06/10 12:27:13;;;;;;;;;;;;;;;18.07;52.05;100313.13;5068258;28;980;-61
2022/06/10 12:29:41;;;;;;;;;;;;;;;17.75;53.22;100306.38;5043865;28;1020;-61
2022/06/10 12:32:19;;;;;;;;;;;;;;;17.64;53.49;100310.31;5050566;28;1273;-61
2022/06/10 12:34:59;;;;;;;;;;;;;;;17.77;52.97;100309.63;5053249;28;1910;-61
2022/06/10 12:37:27;;;;;;;;;;;;;;;17.98;52.78;100314.91;5052708;28;976;-61
2022/06/10 12:39:53;;;;;;;;;;;;;;;17.58;53.75;100317.00;5070403;28;977;-60
2022/06/10 12:42:22;;;;;;;;;;;;;;;17.60;53.52;100315.59;5061020;28;900;-61
2022/06/10 12:44:53;;;;;;;;;;;;;;;17.57;53.74;100316.19;5050606;28;1139;-61
2022/06/10 12:47:21;;;;;;;;;;;;;;;17.86;52.70;100329.03;5049911;28;818;-61
2022/06/10 12:49:47;;;;;;;;;;;;;;;17.61;53.41;100322.75;5072124;28;976;-61
2022/06/10 12:52:21;;;;;;;;;;;;;;;17.73;53.12;100319.56;5055396;28;1412;-61
2022/06/10 12:54:58;;;;;;;;;;;;;;;17.93;52.63;100325.97;5073438;28;1993;-61
2022/06/10 12:57:23;;;;;;;;;;;;;;;17.78;53.60;100327.78;5048729;28;1005;-58
2022/06/10 12:59:49;;;;;;;;;;;;;;;17.39;54.86;100317.75;5074435;28;1027;-58
2022/06/10 13:02:34;;;;;;;;;;;;;;;17.41;54.46;100312.75;5072670;28;1127;-60
2022/06/10 13:05:02;;;;;;;;;;;;;;;17.95;53.15;100315.50;5059272;28;1211;-56
2022/06/10 13:07:35;;;;;;;;;;;;;;;17.58;54.20;100311.50;5069498;28;1074;-57
2022/06/10 13:10:19;;;;;;;;;;;;;;;17.58;53.86;100314.25;5068852;28;1114;-59
2022/06/10 13:12:47;;;;;;;;;;;;;;;17.84;53.34;100316.69;5060690;28;1024;-58